Terminal Aerodrome Forecast
Issued by NWS

Home | Current Version | Previous Version | Text Only | Print | Product List | Glossary On
Versions: 1 2 3 4 5 6 7 8 9 10 11 12 13 14 15 16 17
578
FTUS45 KPSR 231720
TAFIPL
TAF
KIPL 231720Z 2318/2418 16010KT 3SM HZ BKN010
     FM232000 14011KT 6SM HZ SCT012 SCT180
     FM232300 14015KT P6SM FEW200
     FM240800 13006KT P6SM SCT200=

USA.gov is the U.S. government's official web portal to all federal, state and local government web resources and services.